createdAt,value
2023-07-19T00:00:49.844Z,1.50
2023-07-19T00:03:16.885Z,1.50
2023-07-19T00:05:43.880Z,1.50
2023-07-19T00:08:11.075Z,1.48
2023-07-19T00:10:38.068Z,1.50
2023-07-19T00:13:05.408Z,1.58
2023-07-19T00:15:32.533Z,1.50
2023-07-19T00:17:59.511Z,1.60
2023-07-19T00:20:26.513Z,1.50
2023-07-19T00:22:53.485Z,1.58
2023-07-19T00:25:20.652Z,1.63
2023-07-19T00:27:49.947Z,1.70
2023-07-19T00:30:17.283Z,1.60
2023-07-19T00:32:44.300Z,1.80
2023-07-19T00:35:11.495Z,1.58
2023-07-19T00:37:38.543Z,1.60
2023-07-19T00:40:06.658Z,1.80
2023-07-19T00:42:33.877Z,1.70
2023-07-19T00:45:00.945Z,1.73
2023-07-19T00:47:28.622Z,1.52
2023-07-19T00:49:55.837Z,1.90
2023-07-19T00:52:23.383Z,1.60
2023-07-19T00:54:50.524Z,1.92
2023-07-19T00:57:17.520Z,1.70
2023-07-19T00:59:44.644Z,1.88
2023-07-19T01:02:13.501Z,1.98
2023-07-19T01:04:42.267Z,2.00
2023-07-19T01:07:09.361Z,2.03
2023-07-19T01:09:36.446Z,1.98
2023-07-19T01:12:03.814Z,1.90
2023-07-19T01:14:30.844Z,1.80
2023-07-19T01:16:58.328Z,1.60
2023-07-19T01:19:25.483Z,1.70
2023-07-19T01:21:54.052Z,1.60
2023-07-19T01:24:21.410Z,1.80
2023-07-19T01:26:48.646Z,1.88
2023-07-19T01:29:15.683Z,1.75
2023-07-19T01:31:42.760Z,2.03
2023-07-19T01:34:10.105Z,2.10
2023-07-19T01:36:37.615Z,2.03
2023-07-19T01:39:04.611Z,1.90
2023-07-19T01:41:31.644Z,2.08
2023-07-19T01:43:58.614Z,2.10
2023-07-19T01:46:25.624Z,2.25
2023-07-19T01:48:52.611Z,2.17
2023-07-19T01:51:19.888Z,2.55
2023-07-19T01:53:47.134Z,2.40
2023-07-19T01:56:14.534Z,2.50
2023-07-19T01:58:41.814Z,2.03
2023-07-19T02:01:09.037Z,2.50
2023-07-19T02:03:36.131Z,2.30
2023-07-19T02:06:03.262Z,2.25
2023-07-19T02:08:30.240Z,2.10
2023-07-19T02:10:57.213Z,2.33
2023-07-19T02:13:24.382Z,2.53
2023-07-19T02:15:51.399Z,2.40
2023-07-19T02:18:18.670Z,2.15
2023-07-19T02:20:46.784Z,2.55
2023-07-19T02:23:14.899Z,2.45
2023-07-19T02:25:43.143Z,2.47
2023-07-19T02:28:11.902Z,2.50
2023-07-19T02:30:45.513Z,2.72
2023-07-19T02:33:13.512Z,2.50
2023-07-19T02:35:40.581Z,2.47
2023-07-19T02:38:07.652Z,2.20
2023-07-19T02:40:34.899Z,2.58
2023-07-19T02:43:01.905Z,2.50
2023-07-19T02:45:29.296Z,2.22
2023-07-19T02:47:57.951Z,2.30
2023-07-19T02:50:25.078Z,2.30
2023-07-19T02:52:52.297Z,2.38
2023-07-19T02:55:19.378Z,2.55
2023-07-19T02:57:46.362Z,2.50
2023-07-19T03:00:13.721Z,2.42
2023-07-19T03:02:41.068Z,2.55
2023-07-19T03:05:08.447Z,2.40
2023-07-19T03:07:35.497Z,2.60
2023-07-19T03:10:02.495Z,2.50
2023-07-19T03:12:29.519Z,2.60
2023-07-19T03:14:56.536Z,2.88
2023-07-19T03:17:23.696Z,2.65
2023-07-19T03:19:50.679Z,2.50
2023-07-19T03:22:17.764Z,2.42
2023-07-19T03:24:46.254Z,2.25
2023-07-19T03:27:13.286Z,2.60
2023-07-19T03:29:40.445Z,2.63
2023-07-19T03:32:08.779Z,2.38
2023-07-19T03:34:36.074Z,2.58
2023-07-19T03:37:03.319Z,2.72
2023-07-19T03:39:30.428Z,2.50
2023-07-19T03:41:58.827Z,2.55
2023-07-19T03:44:26.321Z,2.80
2023-07-19T03:46:53.354Z,2.60
2023-07-19T03:49:21.151Z,2.65
2023-07-19T03:51:49.224Z,2.40
2023-07-19T03:54:18.940Z,2.58
2023-07-19T03:56:46.107Z,2.17
2023-07-19T03:59:13.766Z,2.72
2023-07-19T04:01:41.229Z,2.60
2023-07-19T04:04:08.254Z,2.58
2023-07-19T04:06:35.436Z,2.30
2023-07-19T04:09:02.788Z,2.60
2023-07-19T04:11:30.186Z,2.80
2023-07-19T04:13:57.273Z,2.50
2023-07-19T04:16:24.701Z,2.40
2023-07-19T04:18:51.925Z,2.67
2023-07-19T04:21:19.153Z,2.33
2023-07-19T04:23:48.457Z,2.55
2023-07-19T04:26:16.134Z,2.80
2023-07-19T04:28:43.192Z,2.55
2023-07-19T04:31:10.175Z,2.47
2023-07-19T04:33:37.902Z,2.90
2023-07-19T04:36:15.018Z,2.88
2023-07-19T04:38:43.738Z,2.67
2023-07-19T04:41:11.068Z,2.65
2023-07-19T04:43:38.418Z,2.88
2023-07-19T04:46:07.446Z,2.50
2023-07-19T04:48:35.936Z,2.75
2023-07-19T04:51:03.481Z,2.70
2023-07-19T04:53:30.478Z,2.83
2023-07-19T04:55:58.831Z,2.35
2023-07-19T04:58:30.011Z,2.88
2023-07-19T05:00:57.001Z,3.00
2023-07-19T05:03:24.184Z,2.65
2023-07-19T05:05:51.172Z,2.70
2023-07-19T05:08:19.031Z,2.20
2023-07-19T05:10:46.105Z,2.70
2023-07-19T05:13:13.294Z,2.63
2023-07-19T05:15:40.490Z,2.72
2023-07-19T05:18:12.253Z,3.00
2023-07-19T05:20:40.713Z,3.00
2023-07-19T05:23:07.745Z,2.70
2023-07-19T05:25:34.883Z,2.85
2023-07-19T05:28:01.991Z,2.83
2023-07-19T05:30:29.004Z,2.72
2023-07-19T05:32:56.303Z,2.67
2023-07-19T05:35:23.449Z,2.63
2023-07-19T05:37:50.855Z,2.60
2023-07-19T05:40:18.534Z,2.70
2023-07-19T05:42:46.303Z,2.50
2023-07-19T05:45:13.340Z,2.80
2023-07-19T05:47:40.527Z,2.55
2023-07-19T05:50:08.455Z,2.67
2023-07-19T05:52:35.603Z,2.63
2023-07-19T05:55:05.488Z,2.60
2023-07-19T05:57:33.664Z,2.67
2023-07-19T06:00:14.537Z,2.50
2023-07-19T06:02:54.189Z,2.70
2023-07-19T06:05:24.407Z,2.70
2023-07-19T06:07:54.666Z,2.85
2023-07-19T06:10:22.058Z,2.85
2023-07-19T06:12:49.563Z,2.95
2023-07-19T06:15:16.762Z,2.90
2023-07-19T06:17:44.081Z,2.92
2023-07-19T06:20:14.948Z,2.90
2023-07-19T06:22:42.429Z,3.03
2023-07-19T06:25:09.732Z,3.33
2023-07-19T06:27:36.998Z,3.00
2023-07-19T06:30:04.393Z,3.13
2023-07-19T06:32:31.651Z,3.30
2023-07-19T06:34:58.832Z,3.30
2023-07-19T06:37:25.908Z,3.13
2023-07-19T06:39:53.043Z,3.10
2023-07-19T06:42:20.145Z,3.03
2023-07-19T06:44:47.138Z,3.13
2023-07-19T06:47:14.505Z,2.90
2023-07-19T06:49:41.963Z,3.00
2023-07-19T06:52:09.230Z,3.08
2023-07-19T06:54:36.340Z,3.42
2023-07-19T06:57:03.332Z,3.22
2023-07-19T06:59:30.471Z,3.30
2023-07-19T07:01:57.442Z,3.30
2023-07-19T07:04:25.462Z,2.95
2023-07-19T07:06:52.456Z,3.15
2023-07-19T07:09:19.480Z,3.08
2023-07-19T07:11:46.470Z,3.08
2023-07-19T07:14:13.473Z,2.90
2023-07-19T07:16:40.607Z,3.10
2023-07-19T07:19:07.611Z,3.38
2023-07-19T07:21:34.579Z,3.15
2023-07-19T07:24:01.599Z,3.88
2023-07-19T07:26:28.625Z,3.22
2023-07-19T07:28:55.683Z,3.00
2023-07-19T07:31:23.395Z,3.20
2023-07-19T07:33:50.762Z,2.70
2023-07-19T07:36:17.756Z,2.80
2023-07-19T07:38:44.749Z,3.05
2023-07-19T07:41:13.376Z,3.08
2023-07-19T07:43:41.593Z,3.15
2023-07-19T07:46:08.671Z,3.30
2023-07-19T07:48:35.777Z,3.17
2023-07-19T07:51:02.871Z,2.92
2023-07-19T07:53:29.899Z,3.13
2023-07-19T07:55:56.940Z,2.78
2023-07-19T07:58:23.956Z,3.00
2023-07-19T08:00:50.935Z,2.70
2023-07-19T08:03:18.169Z,2.70
2023-07-19T08:05:45.219Z,2.60
2023-07-19T08:08:12.584Z,2.50
2023-07-19T08:10:40.429Z,2.40
2023-07-19T08:13:08.876Z,2.50
2023-07-19T08:15:36.196Z,2.25
2023-07-19T08:18:03.487Z,2.22
2023-07-19T08:20:30.906Z,2.30
2023-07-19T08:22:59.098Z,2.40
2023-07-19T08:25:28.369Z,2.35
2023-07-19T08:27:55.664Z,2.40
2023-07-19T08:30:23.056Z,2.25
2023-07-19T08:32:50.187Z,2.30
2023-07-19T08:35:17.615Z,2.55
2023-07-19T08:37:45.499Z,2.45
2023-07-19T08:40:14.319Z,2.78
2023-07-19T08:42:41.869Z,2.42
2023-07-19T08:45:09.700Z,2.70
2023-07-19T08:47:37.256Z,2.67
2023-07-19T08:50:06.150Z,2.50
2023-07-19T08:52:33.453Z,2.88
2023-07-19T08:55:01.097Z,2.85
2023-07-19T08:57:28.596Z,2.50
2023-07-19T08:59:55.749Z,2.85
2023-07-19T09:02:22.790Z,3.00
2023-07-19T09:05:09.555Z,3.10
2023-07-19T09:07:38.039Z,3.08
2023-07-19T09:10:08.418Z,3.20
2023-07-19T09:12:42.276Z,3.20
2023-07-19T09:15:10.251Z,2.83
2023-07-19T09:17:47.102Z,3.20
2023-07-19T09:20:14.654Z,2.85
2023-07-19T09:22:42.541Z,2.90
2023-07-19T09:25:11.108Z,3.00
2023-07-19T09:27:38.479Z,2.63
2023-07-19T09:30:12.667Z,2.90
2023-07-19T09:32:40.135Z,3.20
2023-07-19T09:35:07.977Z,3.00
2023-07-19T09:37:35.324Z,2.13
2023-07-19T09:40:04.812Z,2.67
2023-07-19T09:42:34.257Z,2.50
2023-07-19T09:45:01.924Z,2.60
2023-07-19T09:47:30.413Z,2.28
2023-07-19T09:49:57.663Z,2.70
2023-07-19T09:52:26.520Z,2.55
2023-07-19T09:54:54.524Z,2.45
2023-07-19T09:57:24.738Z,2.08
2023-07-19T09:59:52.139Z,2.50
2023-07-19T10:02:19.472Z,2.20
2023-07-19T10:04:47.088Z,2.45
2023-07-19T10:07:21.336Z,2.30
2023-07-19T10:09:50.801Z,1.90
2023-07-19T10:12:17.913Z,1.88
2023-07-19T10:15:00.880Z,1.40
2023-07-19T10:17:28.214Z,1.50
2023-07-19T10:20:08.151Z,1.95
2023-07-19T10:22:55.884Z,1.67
2023-07-19T10:25:28.476Z,1.73
2023-07-19T10:27:57.628Z,1.70
2023-07-19T10:30:51.109Z,1.88
2023-07-19T10:33:31.601Z,1.85
2023-07-19T10:36:19.568Z,2.00
2023-07-19T10:38:47.053Z,2.60
2023-07-19T10:41:17.015Z,2.22
2023-07-19T10:43:50.070Z,2.40
2023-07-19T10:46:20.205Z,2.58
2023-07-19T10:48:47.592Z,2.08
2023-07-19T10:51:14.742Z,1.67
2023-07-19T10:53:46.656Z,1.98
2023-07-19T10:56:16.733Z,2.17
2023-07-19T10:58:44.200Z,2.00
2023-07-19T11:01:11.873Z,2.33
2023-07-19T11:03:40.068Z,2.10
2023-07-19T11:06:08.403Z,2.05
2023-07-19T11:08:35.443Z,1.90
2023-07-19T11:11:02.467Z,1.60
2023-07-19T11:13:29.575Z,1.50
2023-07-19T11:15:57.258Z,1.70
2023-07-19T11:18:28.631Z,1.70
2023-07-19T11:20:59.293Z,1.90
2023-07-19T11:23:29.667Z,1.88
2023-07-19T11:26:10.319Z,1.93
2023-07-19T11:28:45.116Z,1.80
2023-07-19T11:31:42.339Z,1.90
2023-07-19T11:34:10.684Z,1.88
2023-07-19T11:36:41.770Z,2.15
2023-07-19T11:41:46.553Z,2.03
2023-07-19T11:44:17.992Z,2.00
2023-07-19T11:46:45.453Z,1.98
2023-07-19T11:49:12.610Z,1.85
2023-07-19T11:51:40.036Z,1.77
2023-07-19T11:54:07.085Z,1.60
2023-07-19T11:56:34.779Z,1.63
2023-07-19T11:59:02.137Z,1.58
2023-07-19T12:01:29.248Z,1.50
2023-07-19T12:04:01.629Z,1.67
2023-07-19T12:06:29.689Z,1.75
2023-07-19T12:08:56.652Z,1.98
2023-07-19T12:11:23.845Z,1.73
2023-07-19T12:13:50.885Z,1.98
2023-07-19T12:16:18.228Z,1.98
2023-07-19T12:18:45.453Z,2.13
2023-07-19T12:21:12.521Z,2.00
2023-07-19T12:23:41.613Z,1.98
2023-07-19T12:26:10.431Z,1.80
2023-07-19T12:28:38.055Z,1.98
2023-07-19T12:31:05.080Z,1.80
2023-07-19T12:33:32.064Z,1.75
2023-07-19T12:35:59.206Z,1.95
2023-07-19T12:38:26.202Z,2.05
2023-07-19T12:40:53.160Z,1.90
2023-07-19T12:43:20.588Z,1.80
2023-07-19T12:45:47.655Z,1.90
2023-07-19T12:48:14.654Z,2.03
2023-07-19T12:50:41.682Z,1.75
2023-07-19T12:53:08.655Z,1.80
2023-07-19T12:55:35.673Z,1.73
2023-07-19T12:58:02.614Z,1.60
2023-07-19T13:00:29.737Z,2.00
2023-07-19T13:02:56.926Z,1.70
2023-07-19T13:05:24.146Z,1.90
2023-07-19T13:07:52.055Z,1.90
2023-07-19T13:10:19.130Z,1.70
2023-07-19T13:12:46.104Z,1.75
2023-07-19T13:15:13.166Z,1.58
2023-07-19T13:17:41.535Z,1.45
2023-07-19T13:20:12.185Z,1.40
2023-07-19T13:22:40.992Z,1.40
2023-07-19T13:25:08.270Z,1.50
2023-07-19T13:27:36.188Z,1.52
2023-07-19T13:30:05.142Z,1.65
2023-07-19T13:32:33.755Z,1.55
2023-07-19T13:35:01.132Z,1.42
2023-07-19T13:38:06.640Z,1.50
2023-07-19T13:40:15.286Z,1.58
2023-07-19T13:42:42.404Z,1.50
2023-07-19T13:45:09.971Z,1.40
2023-07-19T13:47:37.030Z,1.30
2023-07-19T13:50:04.653Z,1.60
2023-07-19T13:52:31.579Z,1.40
2023-07-19T13:54:58.572Z,1.30
2023-07-19T13:57:25.604Z,1.50
2023-07-19T13:59:52.774Z,1.45
2023-07-19T14:02:27.094Z,1.58
2023-07-19T14:04:54.733Z,1.40
2023-07-19T14:07:23.376Z,1.35
2023-07-19T14:09:52.186Z,1.20
2023-07-19T14:12:19.957Z,1.38
2023-07-19T14:14:47.001Z,1.20
2023-07-19T14:17:14.153Z,1.30
2023-07-19T14:19:41.363Z,0.93
2023-07-19T14:22:08.376Z,1.00
2023-07-19T14:24:36.119Z,1.10
2023-07-19T14:27:04.865Z,1.20
2023-07-19T14:29:31.860Z,1.10
2023-07-19T14:31:58.886Z,0.98
2023-07-19T14:34:26.703Z,1.05
2023-07-19T14:36:54.089Z,1.00
2023-07-19T14:39:21.974Z,0.80
2023-07-19T14:41:57.028Z,1.10
2023-07-19T14:44:26.180Z,1.10
2023-07-19T14:46:53.193Z,1.00
2023-07-19T14:49:20.372Z,1.05
2023-07-19T14:51:47.518Z,1.00
2023-07-19T14:54:14.567Z,1.33
2023-07-19T14:56:41.757Z,0.93
2023-07-19T14:59:08.856Z,1.10
2023-07-19T15:01:36.406Z,1.10
2023-07-19T15:04:03.526Z,1.00
2023-07-19T15:06:30.871Z,1.00
2023-07-19T15:09:01.510Z,1.10
2023-07-19T15:11:28.839Z,1.10
2023-07-19T15:13:55.950Z,1.15
2023-07-19T15:16:23.320Z,1.20
2023-07-19T15:18:50.799Z,1.25
2023-07-19T15:21:17.998Z,1.30
2023-07-19T15:26:32.485Z,1.33
2023-07-19T15:29:01.585Z,1.10
2023-07-19T15:31:29.408Z,1.48
2023-07-19T15:33:56.584Z,1.40
2023-07-19T15:36:24.379Z,1.20
2023-07-19T15:38:55.725Z,1.30
2023-07-19T15:41:24.099Z,1.35
2023-07-19T15:43:51.600Z,1.20
2023-07-19T15:46:18.810Z,1.27
2023-07-19T15:48:46.585Z,1.35
2023-07-19T15:51:14.566Z,1.27
2023-07-19T15:53:41.788Z,1.30
2023-07-19T15:56:09.194Z,1.27
2023-07-19T15:58:36.290Z,1.33
2023-07-19T16:01:03.639Z,1.13
2023-07-19T16:03:31.233Z,1.27
2023-07-19T16:05:58.183Z,1.25
2023-07-19T16:08:25.156Z,1.35
2023-07-19T16:10:52.344Z,1.10
2023-07-19T16:13:21.624Z,1.10
2023-07-19T16:15:48.970Z,1.00
2023-07-19T16:18:16.153Z,1.10
2023-07-19T16:20:43.788Z,1.20
2023-07-19T16:23:11.197Z,1.08
2023-07-19T16:25:38.390Z,1.20
2023-07-19T16:28:05.558Z,1.10
2023-07-19T16:30:32.846Z,1.10
2023-07-19T16:33:00.405Z,1.10
2023-07-19T16:35:28.814Z,1.20
2023-07-19T16:37:55.939Z,1.10
2023-07-19T16:40:23.072Z,1.20
2023-07-19T16:42:50.049Z,1.33
2023-07-19T16:45:17.393Z,1.33
2023-07-19T16:47:44.626Z,1.20
2023-07-19T16:50:13.219Z,1.20
2023-07-19T16:52:43.791Z,1.38
2023-07-19T16:55:11.447Z,1.30
2023-07-19T16:57:39.130Z,1.20
2023-07-19T17:00:17.412Z,1.30
2023-07-19T17:02:45.518Z,1.23
2023-07-19T17:05:12.709Z,1.40
2023-07-19T17:07:40.387Z,1.30
2023-07-19T17:10:07.836Z,1.30
2023-07-19T17:12:34.881Z,1.30
2023-07-19T17:15:01.852Z,1.30
2023-07-19T17:17:28.969Z,1.50
2023-07-19T17:19:56.169Z,1.20
2023-07-19T17:22:23.390Z,1.40
2023-07-19T17:24:50.496Z,1.30
2023-07-19T17:27:17.571Z,1.30
2023-07-19T17:29:44.601Z,1.30
2023-07-19T17:32:11.662Z,1.17
2023-07-19T17:34:39.287Z,1.10
2023-07-19T17:37:06.737Z,1.50
2023-07-19T17:39:33.776Z,1.40
2023-07-19T17:42:00.778Z,1.33
2023-07-19T17:44:27.997Z,1.83
2023-07-19T17:46:55.093Z,1.70
2023-07-19T17:49:22.257Z,1.65
2023-07-19T17:51:49.379Z,1.50
2023-07-19T17:54:16.368Z,1.30
2023-07-19T17:56:43.393Z,1.58
2023-07-19T17:59:10.480Z,1.40
2023-07-19T18:01:37.795Z,1.30
2023-07-19T18:04:05.121Z,1.50
2023-07-19T18:06:32.300Z,1.10
2023-07-19T18:08:59.326Z,1.20
2023-07-19T18:11:26.388Z,1.20
2023-07-19T18:13:53.371Z,1.10
2023-07-19T18:16:20.724Z,1.30
2023-07-19T18:18:47.830Z,1.48
2023-07-19T18:21:14.953Z,1.50
2023-07-19T18:23:42.052Z,1.40
2023-07-19T18:26:09.045Z,1.40
2023-07-19T18:28:36.401Z,1.40
2023-07-19T18:31:04.409Z,1.35
2023-07-19T18:33:31.660Z,1.40
2023-07-19T18:35:58.961Z,1.58
2023-07-19T18:38:25.943Z,1.20
2023-07-19T18:40:53.131Z,1.23
2023-07-19T18:43:20.119Z,1.25
2023-07-19T18:45:47.149Z,1.20
2023-07-19T18:48:14.222Z,1.20
2023-07-19T18:50:41.741Z,1.30
2023-07-19T18:53:08.846Z,1.23
2023-07-19T18:55:36.095Z,1.10
2023-07-19T18:58:03.118Z,1.08
2023-07-19T19:00:30.703Z,1.20
2023-07-19T19:02:58.054Z,1.10
2023-07-19T19:05:25.393Z,1.10
2023-07-19T19:07:52.541Z,1.10
2023-07-19T19:10:21.204Z,1.20
2023-07-19T19:12:48.815Z,1.00
2023-07-19T19:15:16.252Z,1.20
2023-07-19T19:17:43.523Z,1.08
2023-07-19T19:20:11.247Z,1.20
2023-07-19T19:22:39.610Z,1.00
2023-07-19T19:25:07.700Z,1.08
2023-07-19T19:27:35.739Z,1.20
2023-07-19T19:30:02.978Z,1.00
2023-07-19T19:32:30.082Z,1.10
2023-07-19T19:34:57.661Z,1.05
2023-07-19T19:37:24.862Z,1.10
2023-07-19T19:39:52.450Z,1.08
2023-07-19T19:42:19.453Z,1.10
2023-07-19T19:44:46.525Z,1.10
2023-07-19T19:47:14.402Z,1.10
2023-07-19T19:49:41.656Z,1.10
2023-07-19T19:52:09.029Z,1.30
2023-07-19T19:54:37.382Z,1.30
2023-07-19T19:59:34.889Z,1.30
2023-07-19T20:04:32.279Z,1.30
2023-07-19T20:06:59.425Z,1.30
2023-07-19T20:11:57.467Z,1.30
2023-07-19T20:14:26.368Z,1.20
2023-07-19T20:16:54.008Z,1.30
2023-07-19T20:21:51.212Z,1.00
2023-07-19T20:24:18.935Z,1.45
2023-07-19T20:26:48.926Z,1.33
2023-07-19T20:36:47.987Z,1.50
2023-07-19T20:41:45.099Z,1.45
2023-07-19T20:44:12.551Z,1.35
2023-07-19T20:46:40.011Z,1.40
2023-07-19T20:49:14.244Z,1.40
2023-07-19T20:51:43.238Z,1.30
2023-07-19T20:54:11.317Z,1.42
2023-07-19T20:56:38.778Z,1.50
2023-07-19T20:59:05.894Z,1.40
2023-07-19T21:01:33.174Z,1.75
2023-07-19T21:04:00.662Z,1.75
2023-07-19T21:06:28.002Z,1.85
2023-07-19T21:08:55.473Z,1.80
2023-07-19T21:11:23.126Z,1.90
2023-07-19T21:13:50.532Z,1.90
2023-07-19T21:16:17.662Z,1.77
2023-07-19T21:18:44.775Z,1.90
2023-07-19T21:21:12.031Z,2.10
2023-07-19T21:23:39.108Z,2.00
2023-07-19T21:26:06.224Z,1.80
2023-07-19T21:28:33.332Z,1.90
2023-07-19T21:31:00.404Z,2.03
2023-07-19T21:33:27.591Z,1.67
2023-07-19T21:35:54.784Z,1.70
2023-07-19T21:38:23.215Z,2.08
2023-07-19T21:40:50.252Z,1.92
2023-07-19T21:43:17.240Z,2.10
2023-07-19T21:45:44.314Z,2.10
2023-07-19T21:48:11.511Z,2.00
2023-07-19T21:50:47.967Z,1.58
2023-07-19T21:53:16.712Z,1.80
2023-07-19T21:55:44.015Z,1.90
2023-07-19T21:58:11.148Z,1.67
2023-07-19T22:00:56.588Z,1.70
2023-07-19T22:03:23.722Z,1.60
2023-07-19T22:05:51.602Z,1.80
2023-07-19T22:08:18.849Z,1.73
2023-07-19T22:10:45.992Z,1.65
2023-07-19T22:13:13.013Z,2.13
2023-07-19T22:15:40.019Z,1.80
2023-07-19T22:18:18.388Z,1.73
2023-07-19T22:20:48.941Z,1.48
2023-07-19T22:23:17.090Z,1.60
2023-07-19T22:25:44.623Z,1.50
2023-07-19T22:28:12.378Z,1.42
2023-07-19T22:30:39.519Z,1.60
2023-07-19T22:33:06.959Z,1.50
2023-07-19T22:35:34.351Z,1.63
2023-07-19T22:38:01.991Z,1.40
2023-07-19T22:40:29.169Z,1.40
2023-07-19T22:42:56.279Z,1.50
2023-07-19T22:45:23.218Z,1.50
2023-07-19T22:47:50.501Z,1.50
2023-07-19T22:50:18.000Z,1.58
2023-07-19T22:52:49.218Z,1.52
2023-07-19T22:55:17.884Z,1.60
2023-07-19T22:57:45.449Z,1.58
2023-07-19T23:00:12.774Z,1.50
2023-07-19T23:02:40.079Z,1.50
2023-07-19T23:05:07.453Z,1.60
2023-07-19T23:07:34.563Z,1.70
2023-07-19T23:10:01.611Z,1.55
2023-07-19T23:12:28.654Z,1.60
2023-07-19T23:14:55.680Z,1.70
2023-07-19T23:17:22.857Z,1.60
2023-07-19T23:19:49.897Z,1.70
2023-07-19T23:22:19.621Z,1.80
2023-07-19T23:24:46.994Z,1.70
2023-07-19T23:27:14.117Z,1.48
2023-07-19T23:29:41.126Z,1.60
2023-07-19T23:32:08.505Z,1.70
2023-07-19T23:34:35.531Z,1.77
2023-07-19T23:37:02.799Z,1.90
2023-07-19T23:39:29.834Z,1.75
2023-07-19T23:41:56.875Z,1.85
2023-07-19T23:44:25.080Z,2.00
2023-07-19T23:46:52.272Z,1.83
2023-07-19T23:49:19.413Z,1.80
2023-07-19T23:51:46.529Z,1.90
2023-07-19T23:54:13.885Z,2.20
2023-07-19T23:56:40.911Z,1.80
2023-07-19T23:59:07.919Z,2.00
